Van Kinsbergen — PAKB — position and weather

sailwx.info

Track history (hours):
 
Tides and Currents Weather Stations Pressure Air Temp Water Temp Dewpoint Dewpoint Depression Visibility Wind Speed Wind Dir Waves Ship Positions

Van Kinsbergen

Last reported at 2018-Sep-19 01:00 UTC. Time now 2018-Sep-19 01:01 UTC.
Position N 52°58' E 004°45'.

Length 40 m; draft 3.4 m.

Type: Military. MMSI: 244736000.

Date/timePositionNaut miles runAvg speedWind from/ knotsBaromVisibWave heightAir tempDewpointWater temp
2018-Sep-19 01:00N 52°58' E 004°45'2 3.3
2018-Sep-19 00:31N 52°58' E 004°47'2 5.2
2018-Sep-19 00:04N 52°60' E 004°48'0 6.8
2018-Sep-19 00:01N 52°60' E 004°48'3 5.6
2018-Sep-18 23:31N 53°02' E 004°52'4 8.0
2018-Sep-18 23:04N 52°60' E 004°47'0 8.7
2018-Sep-18 23:01N 52°59' E 004°47'1 1.0
2018-Sep-18 22:31N 52°59' E 004°47'1 3.1
2018-Sep-18 22:03N 52°58' E 004°47'0 0.8
2018-Sep-18 22:00N 52°58' E 004°47'3 6.0
2018-Sep-18 21:31N 53°00' E 004°49'3 5.7
2018-Sep-18 21:03N 53°02' E 004°52'0 6.2
2018-Sep-18 21:00N 53°02' E 004°53'1 1.1
2018-Sep-18 20:30N 53°02' E 004°52'4 8.0
2018-Sep-18 20:04N 52°60' E 004°47'0 7.9
2018-Sep-18 20:01N 52°59' E 004°47'0 0.4
2018-Sep-18 19:30N 52°59' E 004°47'2 4.1
2018-Sep-18 19:04N 52°58' E 004°47'0 4.5
2018-Sep-18 19:00N 52°58' E 004°47'4 7.1
2018-Sep-18 18:31N 53°01' E 004°50'4 9.3
2018-Sep-18 18:03N 53°04' E 004°55'0 9.9
2018-Sep-18 18:01N 53°04' E 004°56'510.2
2018-Sep-18 17:31N 53°02' E 005°04'510.4
2018-Sep-18 17:03N 53°03' E 005°12'110.3
2018-Sep-18 17:00N 53°03' E 005°13'4 8.7
2018-Sep-18 16:30N 53°05' E 005°19'1 1.6
2018-Sep-18 16:02N 53°05' E 005°20'0 0.1
2018-Sep-18 15:59N 53°05' E 005°20'0 0.0
2018-Sep-18 15:29N 53°05' E 005°20'0 0.0
2018-Sep-18 15:02N 53°05' E 005°20'0 0.0
2018-Sep-18 14:59N 53°05' E 005°20'0 0.0
2018-Sep-18 14:02N 53°05' E 005°20'0 0.1
2018-Sep-18 13:59N 53°05' E 005°20'0 0.0
2018-Sep-18 13:30N 53°05' E 005°20'2 3.7
2018-Sep-18 13:04N 53°05' E 005°17'112.2
2018-Sep-18 13:01N 53°04' E 005°17'612.5
2018-Sep-18 12:31N 53°02' E 005°07'512.1
2018-Sep-18 12:04N 53°04' E 004°58'112.4
2018-Sep-18 12:01N 53°04' E 004°57'713.2
2018-Sep-18 11:31N 52°60' E 004°49'3 5.8
2018-Sep-18 11:04N 52°58' E 004°45'0 7.1
2018-Sep-18 11:00N 52°58' E 004°46'1 2.5
2018-Sep-18 10:30N 52°58' E 004°47'1 2.8
2018-Sep-18 10:04N 52°59' E 004°46'0 7.8
2018-Sep-18 10:01N 52°58' E 004°46'0 0.5
2018-Sep-18 09:31N 52°58' E 004°46'1 2.7
2018-Sep-18 09:04N 52°59' E 004°48'0 8.9
2018-Sep-18 09:01N 52°58' E 004°47'1 2.6
2018-Sep-18 08:30N 52°59' E 004°47'3 5.9
2018-Sep-18 08:03N 52°58' E 004°44'0 2.9
2018-Sep-18 08:00N 52°58' E 004°44'2 5.0
2018-Sep-18 07:31N 52°60' E 004°47'1 2.3
2018-Sep-18 07:03N 52°59' E 004°47'0 7.7
2018-Sep-18 07:00N 52°59' E 004°48'2 3.9
2018-Sep-18 06:30N 52°58' E 004°45'2 4.4
2018-Sep-18 06:03N 52°59' E 004°47'0 6.2
2018-Sep-18 06:01N 52°59' E 004°47'1 1.6
2018-Sep-18 05:31N 52°59' E 004°46'2 5.2
2018-Sep-18 05:03N 52°58' E 004°43'111.5
2018-Sep-18 05:01N 52°58' E 004°44'2 4.4
2018-Sep-18 04:31N 52°58' E 004°47'2 4.0
2018-Sep-18 04:04N 52°59' E 004°45'0 6.7
2018-Sep-18 04:01N 52°59' E 004°45'3 6.8
2018-Sep-18 03:31N 52°56' E 004°41'0 0.6
2018-Sep-18 03:03N 52°56' E 004°40'110.5
2018-Sep-18 03:01N 52°56' E 004°41'510.3
2018-Sep-18 02:31N 52°60' E 004°48'2 4.3
2018-Sep-18 02:03N 52°58' E 004°47'0 2.1
2018-Sep-18 02:01N 52°58' E 004°47'2 4.8
2018-Sep-18 01:30N 52°58' E 004°43'1 1.7
2018-Sep-18 01:04N 52°58' E 004°42'0 7.6
2018-Sep-18 01:01N 52°58' E 004°43'3 6.4
2018-Sep-18 00:30N 52°59' E 004°48'1 3.2
2018-Sep-18 00:04N 52°58' E 004°47'0 7.2
2018-Sep-18 00:00N 52°58' E 004°47'3 5.3
2018-Sep-17 23:30N 52°58' E 004°43'3 6.6
2018-Sep-17 23:03N 52°56' E 004°40'0 6.6
2018-Sep-17 23:00N 52°56' E 004°40'3 6.9
2018-Sep-17 22:30N 52°58' E 004°44'2 4.5
2018-Sep-17 22:04N 52°58' E 004°47'0 7.2
2018-Sep-17 22:00N 52°58' E 004°47'1 2.2
2018-Sep-17 21:31N 52°59' E 004°46'0 0.6
2018-Sep-17 21:04N 52°59' E 004°46'0 6.2
2018-Sep-17 21:00N 52°59' E 004°47'2 3.2
2018-Sep-17 20:31N 52°58' E 004°47'2 3.6
2018-Sep-17 20:03N 52°59' E 004°46'111.0
2018-Sep-17 20:01N 52°59' E 004°45'5 9.7
2018-Sep-17 19:31N 52°55' E 004°40'3 5.7
2018-Sep-17 19:04N 52°53' E 004°37'0 6.7
2018-Sep-17 19:01N 52°54' E 004°38'4 7.4
2018-Sep-17 18:31N 52°57' E 004°41'4 8.3
2018-Sep-17 18:03N 52°59' E 004°46'111.3
2018-Sep-17 18:00N 52°59' E 004°47'2 3.3
2018-Sep-17 17:30N 52°58' E 004°47'0 0.0
2018-Sep-17 17:03N 52°58' E 004°47'0 0.0
2018-Sep-17 17:00N 52°58' E 004°47'0 0.0
2018-Sep-17 16:30N 52°58' E 004°47'0 0.0
2018-Sep-17 16:03N 52°58' E 004°47'0 0.0
2018-Sep-17 16:00N 52°58' E 004°47'0 0.0
2018-Sep-17 15:30N 52°58' E 004°47'0 0.0
2018-Sep-17 15:03N 52°58' E 004°47'0 0.0
2018-Sep-17 15:00N 52°58' E 004°47'0 0.0
2018-Sep-17 14:30N 52°58' E 004°47'0 0.6
2018-Sep-17 14:01N 52°57' E 004°47'2 3.7
2018-Sep-17 13:30N 52°58' E 004°45'4 9.6
2018-Sep-17 13:04N 52°55' E 004°40'110.1
2018-Sep-17 13:01N 52°55' E 004°39'4 7.5
2018-Sep-17 12:31N 52°56' E 004°33'510.4
2018-Sep-17 12:04N 53°00' E 004°34'110.4
2018-Sep-17 12:00N 53°01' E 004°34'5 9.6
2018-Sep-17 11:31N 53°05' E 004°37'4 9.7
2018-Sep-17 11:03N 53°09' E 004°41'0 9.1
2018-Sep-17 11:01N 53°09' E 004°41'5 9.0
2018-Sep-17 10:30N 53°13' E 004°45'4 8.7
2018-Sep-17 10:01N 53°15' E 004°51'0 8.6
2018-Sep-17 10:00N 53°16' E 004°51'4 8.8
2018-Sep-17 09:30N 53°18' E 004°57'4 7.1
2018-Sep-17 09:01N 53°19' E 005°03'0 5.5
2018-Sep-17 09:01N 53°19' E 005°03'4 7.7
2018-Sep-17 08:31N 53°19' E 005°09'3 6.4
2018-Sep-17 08:03N 53°18' E 005°13'0 7.3
2018-Sep-17 08:01N 53°18' E 005°14'3 5.4
2018-Sep-17 07:31N 53°21' E 005°12'1 1.5
2018-Sep-17 06:56N 53°21' E 005°13'0 0.0
2018-Sep-17 06:29N 53°21' E 005°13'0 0.0
2018-Sep-17 06:02N 53°21' E 005°13'0 0.1
2018-Sep-17 05:56N 53°21' E 005°13'0 0.0
2018-Sep-17 05:29N 53°21' E 005°13'0 0.0
2018-Sep-17 04:59N 53°21' E 005°13'0 0.0
2018-Sep-17 04:26N 53°21' E 005°13'0 0.0
2018-Sep-17 04:02N 53°21' E 005°13'0 0.1
2018-Sep-17 03:59N 53°21' E 005°13'0 0.0
2018-Sep-17 03:29N 53°21' E 005°13'0 0.0
2018-Sep-17 02:56N 53°21' E 005°13'0 0.0
2018-Sep-17 02:29N 53°21' E 005°13'0 0.0
2018-Sep-17 02:02N 53°21' E 005°13'0 0.0
2018-Sep-17 01:53N 53°21' E 005°13'0 0.0
2018-Sep-17 01:17N 53°21' E 005°13'0 0.0
2018-Sep-17 01:02N 53°21' E 005°13'0 0.0
2018-Sep-17 00:59N 53°21' E 005°13'0 0.0
2018-Sep-17 00:17N 53°21' E 005°13'0 0.0
2018-Sep-16 23:59N 53°21' E 005°13'0 0.0
2018-Sep-16 23:29N 53°21' E 005°13'0 0.0
2018-Sep-16 22:59N 53°21' E 005°13'0 0.0
2018-Sep-16 22:29N 53°21' E 005°13'0 0.0
2018-Sep-16 21:59N 53°21' E 005°13'0 0.0
2018-Sep-16 21:29N 53°21' E 005°13'0 0.0
2018-Sep-16 21:02N 53°21' E 005°13'0 0.0
2018-Sep-16 20:59N 53°21' E 005°13'0 0.0
2018-Sep-16 20:29N 53°21' E 005°13'0 0.0
2018-Sep-16 20:02N 53°21' E 005°13'0 0.0
2018-Sep-16 19:59N 53°21' E 005°13'0 0.0
2018-Sep-16 19:29N 53°21' E 005°13'0 0.0
2018-Sep-16 19:02N 53°21' E 005°13'0 0.0
2018-Sep-16 18:59N 53°21' E 005°13'0 0.0
2018-Sep-16 18:29N 53°21' E 005°13'0 0.0
2018-Sep-16 17:53N 53°21' E 005°13'0 0.0
2018-Sep-16 17:29N 53°21' E 005°13'0 0.0
2018-Sep-16 16:59N 53°21' E 005°13'0 0.0
2018-Sep-16 16:29N 53°21' E 005°13'0 0.0
2018-Sep-16 15:56N 53°21' E 005°13'0 0.0
2018-Sep-16 15:29N 53°21' E 005°13'0 0.0
2018-Sep-16 15:02N 53°21' E 005°13'0 0.0
2018-Sep-16 14:59N 53°21' E 005°13'3 3.0
2018-Sep-16 14:01N 53°19' E 005°15'5 9.9
2018-Sep-16 13:30N 53°14' E 005°11'510.8
2018-Sep-16 13:04N 53°12' E 005°18'111.2
2018-Sep-16 13:01N 53°12' E 005°19'4 7.3
2018-Sep-16 12:30N 53°09' E 005°23'3 6.6
2018-Sep-16 12:04N 53°06' E 005°22'0 6.1
2018-Sep-16 12:00N 53°06' E 005°22'510.7
2018-Sep-16 11:31N 53°04' E 005°15'613.1
2018-Sep-16 11:04N 53°02' E 005°05'113.2
2018-Sep-16 11:00N 53°02' E 005°04'611.9
2018-Sep-16 10:30N 53°03' E 004°54'613.7
2018-Sep-16 10:03N 52°58' E 004°47'0 8.2
2018-Sep-16 10:00N 52°58' E 004°47'0 0.2
2018-Sep-16 09:30N 52°58' E 004°47'0 0.0
2018-Sep-16 09:03N 52°58' E 004°47'0 0.0
2018-Sep-16 09:00N 52°58' E 004°47'0 0.0
2018-Sep-16 08:30N 52°58' E 004°47'0 0.0
2018-Sep-16 08:03N 52°58' E 004°47'0 0.0
2018-Sep-16 08:00N 52°58' E 004°47'0 0.0
2018-Sep-16 07:30N 52°58' E 004°47'0 0.0
2018-Sep-16 07:03N 52°58' E 004°47'0 0.0
2018-Sep-16 07:00N 52°58' E 004°47'0 0.0
2018-Sep-16 06:30N 52°58' E 004°47'0 0.0
2018-Sep-16 06:03N 52°58' E 004°47'0 0.0
2018-Sep-16 06:00N 52°58' E 004°47'0 0.0
2018-Sep-16 05:30N 52°58' E 004°47'0 0.0
2018-Sep-16 05:03N 52°58' E 004°47'0 0.0
2018-Sep-16 05:00N 52°58' E 004°47'0 0.0
2018-Sep-16 04:30N 52°58' E 004°47'0 0.0
2018-Sep-16 04:00N 52°58' E 004°47'0 0.0
2018-Sep-16 03:30N 52°58' E 004°47'0 0.0
2018-Sep-16 03:03N 52°58' E 004°47'0 0.0
2018-Sep-16 03:00N 52°58' E 004°47'0 0.0
2018-Sep-16 02:30N 52°58' E 004°47'0 0.0
2018-Sep-16 02:03N 52°58' E 004°47'0 0.0
2018-Sep-16 02:00N 52°58' E 004°47'0 0.0
2018-Sep-16 01:30N 52°58' E 004°47'0 0.0
2018-Sep-16 01:03N 52°58' E 004°47'0 0.0
2018-Sep-16 01:00N 52°58' E 004°47'0 0.0
2018-Sep-16 00:30N 52°58' E 004°47'0 0.0
2018-Sep-16 00:03N 52°58' E 004°47'0 0.0
2018-Sep-16 00:00N 52°58' E 004°47'0 0.0
2018-Sep-15 23:30N 52°58' E 004°47'0 0.0
2018-Sep-15 23:03N 52°58' E 004°47'0 0.0
2018-Sep-15 23:00N 52°58' E 004°47'0 0.0
2018-Sep-15 22:30N 52°58' E 004°47'0 0.0
2018-Sep-15 22:03N 52°58' E 004°47'0 0.0
2018-Sep-15 22:00N 52°58' E 004°47'0 0.0
2018-Sep-15 21:30N 52°58' E 004°47'0 0.0
2018-Sep-15 21:03N 52°58' E 004°47'0 0.1
2018-Sep-15 21:00N 52°58' E 004°47'0 0.0
2018-Sep-15 20:30N 52°58' E 004°47'0 0.0
2018-Sep-15 20:03N 52°58' E 004°47'0 0.0
2018-Sep-15 20:00N 52°58' E 004°47'0 0.0
2018-Sep-15 19:30N 52°58' E 004°47'0 0.0
2018-Sep-15 19:03N 52°58' E 004°47'0 0.1
2018-Sep-15 19:00N 52°58' E 004°47'0 0.0
2018-Sep-15 18:30N 52°58' E 004°47'0 0.0
2018-Sep-15 17:57N 52°58' E 004°47'0 0.0
2018-Sep-15 17:30N 52°58' E 004°47'0 0.0
2018-Sep-15 17:03N 52°58' E 004°47'0 0.0
2018-Sep-15 17:00N 52°58' E 004°47'0 0.0
2018-Sep-15 16:30N 52°58' E 004°47'0 0.0
2018-Sep-15 16:03N 52°58' E 004°47'0 0.0
2018-Sep-15 16:00N 52°58' E 004°47'0 0.0
2018-Sep-15 15:30N 52°58' E 004°47'0 0.0
2018-Sep-15 15:03N 52°58' E 004°47'0 0.0
2018-Sep-15 14:30N 52°58' E 004°47'0 0.0
2018-Sep-15 14:00N 52°58' E 004°47'0 0.0
2018-Sep-15 13:30N 52°58' E 004°47'0 0.0
2018-Sep-15 13:03N 52°58' E 004°47'0 0.0
2018-Sep-15 13:00N 52°58' E 004°47'0 0.0
2018-Sep-15 12:30N 52°58' E 004°47'0 0.0
2018-Sep-15 12:03N 52°58' E 004°47'0 0.0
2018-Sep-15 12:00N 52°58' E 004°47'0 0.0
2018-Sep-15 11:30N 52°58' E 004°47'0 0.0
2018-Sep-15 11:03N 52°58' E 004°47'0 0.0
2018-Sep-15 11:00N 52°58' E 004°47'0 0.0
2018-Sep-15 10:30N 52°58' E 004°47'0 0.0
2018-Sep-15 10:03N 52°58' E 004°47'0 0.0
2018-Sep-15 10:00N 52°58' E 004°47'0 0.0
2018-Sep-15 09:30N 52°58' E 004°47'0 0.0
2018-Sep-15 09:03N 52°58' E 004°47'0 0.0
2018-Sep-15 09:00N 52°58' E 004°47'0 0.0
2018-Sep-15 08:30N 52°58' E 004°47'0 0.0
2018-Sep-15 08:03N 52°58' E 004°47'0 0.0
2018-Sep-15 07:57N 52°58' E 004°47'0 0.0
2018-Sep-15 07:30N 52°58' E 004°47'0 0.0
2018-Sep-15 07:03N 52°58' E 004°47'0 0.0
2018-Sep-15 07:00N 52°58' E 004°47'0 0.0
2018-Sep-15 06:30N 52°58' E 004°47'0 0.0
2018-Sep-15 06:03N 52°58' E 004°47'0 0.0
2018-Sep-15 06:00N 52°58' E 004°47'0 0.0
2018-Sep-15 05:30N 52°58' E 004°47'0 0.0
2018-Sep-15 05:03N 52°58' E 004°47'0 0.0
2018-Sep-15 05:00N 52°58' E 004°47'0 0.0
2018-Sep-15 04:30N 52°58' E 004°47'0 0.0
2018-Sep-15 04:03N 52°58' E 004°47'0 0.0
2018-Sep-15 04:00N 52°58' E 004°47'0 0.0
2018-Sep-15 03:30N 52°58' E 004°47'0 0.0
2018-Sep-15 03:03N 52°58' E 004°47'0 0.0
2018-Sep-15 02:54N 52°58' E 004°47'0 0.0
2018-Sep-15 02:30N 52°58' E 004°47'0 0.0
2018-Sep-15 02:03N 52°58' E 004°47'0 0.0
2018-Sep-15 02:00N 52°58' E 004°47'0 0.0
2018-Sep-15 01:30N 52°58' E 004°47'0 0.0
2018-Sep-15 01:03N 52°58' E 004°47'0 0.0
2018-Sep-15 01:00N 52°58' E 004°47'0 0.0
2018-Sep-15 00:30N 52°58' E 004°47'0 0.0
2018-Sep-15 00:03N 52°58' E 004°47'0 0.0
2018-Sep-15 00:00N 52°58' E 004°47'0 0.0
2018-Sep-14 23:30N 52°58' E 004°47'0 0.0
2018-Sep-14 23:03N 52°58' E 004°47'0 0.0
2018-Sep-14 23:00N 52°58' E 004°47'0 0.0
2018-Sep-14 22:30N 52°58' E 004°47'0 0.0
2018-Sep-14 22:03N 52°58' E 004°47'0 0.1
2018-Sep-14 22:00N 52°58' E 004°47'0 0.0
2018-Sep-14 21:30N 52°58' E 004°47'0 0.0
2018-Sep-14 21:03N 52°58' E 004°47'0 0.0
2018-Sep-14 20:57N 52°58' E 004°47'0 0.0
2018-Sep-14 20:30N 52°58' E 004°47'0 0.0
2018-Sep-14 20:00N 52°58' E 004°47'0 0.0
2018-Sep-14 19:27N 52°58' E 004°47'0 0.0
2018-Sep-14 19:00N 52°58' E 004°47'0 0.0
2018-Sep-14 18:30N 52°58' E 004°47'0 0.0
2018-Sep-14 18:03N 52°58' E 004°47'0 0.0
2018-Sep-14 18:00N 52°58' E 004°47'0 0.0
2018-Sep-14 17:30N 52°58' E 004°47'0 0.0
2018-Sep-14 17:03N 52°58' E 004°47'0 0.0
2018-Sep-14 17:00N 52°58' E 004°47'0 0.0
2018-Sep-14 16:30N 52°58' E 004°47'0 0.0
2018-Sep-14 16:03N 52°58' E 004°47'0 0.0
2018-Sep-14 16:00N 52°58' E 004°47'0 0.0
2018-Sep-14 15:30N 52°58' E 004°47'0 0.0
2018-Sep-14 14:57N 52°58' E 004°47'0 0.0
2018-Sep-14 14:30N 52°58' E 004°47'0 0.0
2018-Sep-14 14:00N 52°58' E 004°47'0 0.0
2018-Sep-14 13:27N 52°58' E 004°47'0 0.0
2018-Sep-14 12:48N 52°58' E 004°47'0 0.8
2018-Sep-14 12:31N 52°58' E 004°47'1 2.9
2018-Sep-14 12:03N 52°58' E 004°45'0 6.5
2018-Sep-14 12:01N 52°58' E 004°45'1 2.0
2018-Sep-14 11:31N 52°59' E 004°46'1 2.8
2018-Sep-14 11:04N 52°58' E 004°47'0 1.2
2018-Sep-14 11:00N 52°58' E 004°47'0 0.0
2018-Sep-14 10:28N 52°58' E 004°47'0 0.4
2018-Sep-14 10:04N 52°58' E 004°47'0 5.8
2018-Sep-14 10:01N 52°58' E 004°47'1 2.2
2018-Sep-14 09:31N 52°58' E 004°46'1 1.7
2018-Sep-14 09:03N 52°59' E 004°46'0 4.4
2018-Sep-14 09:00N 52°59' E 004°46'1 2.2
2018-Sep-14 08:31N 52°58' E 004°47'1 2.3
2018-Sep-14 08:03N 52°58' E 004°46'113.2
2018-Sep-14 08:00N 52°58' E 004°44'2 4.3
2018-Sep-14 07:30N 52°60' E 004°47'2 4.3
2018-Sep-14 07:03N 52°58' E 004°47'0 0.0
2018-Sep-14 07:00N 52°58' E 004°47'0 0.0
2018-Sep-14 06:30N 52°58' E 004°47'0 0.0
2018-Sep-14 06:00N 52°58' E 004°47'0 0.0
2018-Sep-14 05:30N 52°58' E 004°47'0 0.0
2018-Sep-14 05:03N 52°58' E 004°47'0 0.0
2018-Sep-14 05:00N 52°58' E 004°47'0 0.0
2018-Sep-14 04:30N 52°58' E 004°47'0 0.0
2018-Sep-14 04:03N 52°58' E 004°47'0 0.0
2018-Sep-14 03:57N 52°58' E 004°47'0 0.0
2018-Sep-14 03:30N 52°58' E 004°47'0 0.0
2018-Sep-14 03:03N 52°58' E 004°47'0 0.0
2018-Sep-14 03:00N 52°58' E 004°47'0 0.0
2018-Sep-14 02:30N 52°58' E 004°47'0 0.0
2018-Sep-14 02:03N 52°58' E 004°47'0 0.0
2018-Sep-14 02:00N 52°58' E 004°47'0 0.0
2018-Sep-14 01:30N 52°58' E 004°47'0 0.0
2018-Sep-14 01:03N 52°58' E 004°47'0 0.0
2018-Sep-14 01:00N 52°58' E 004°47'0 0.0
2018-Sep-14 00:30N 52°58' E 004°47'0 0.0
2018-Sep-14 00:03N 52°58' E 004°47'0 0.0
2018-Sep-14 00:00N 52°58' E 004°47'0 0.0
2018-Sep-13 23:30N 52°58' E 004°47'0 0.0
2018-Sep-13 23:03N 52°58' E 004°47'0 0.0
2018-Sep-13 23:00N 52°58' E 004°47'0 0.0
2018-Sep-13 22:30N 52°58' E 004°47'0 0.0
2018-Sep-13 22:03N 52°58' E 004°47'0 0.0
2018-Sep-13 22:00N 52°58' E 004°47'0 0.0
2018-Sep-13 21:30N 52°58' E 004°47'0 0.0
2018-Sep-13 21:03N 52°58' E 004°47'0 0.0
2018-Sep-13 21:00N 52°58' E 004°47'0 0.0
2018-Sep-13 20:30N 52°58' E 004°47'0 0.0
2018-Sep-13 20:03N 52°58' E 004°47'0 0.1
2018-Sep-13 20:00N 52°58' E 004°47'0 0.0
2018-Sep-13 19:30N 52°58' E 004°47'0 0.0
2018-Sep-13 19:03N 52°58' E 004°47'0 0.0
2018-Sep-13 19:00N 52°58' E 004°47'0 0.0
2018-Sep-13 18:27N 52°58' E 004°47'0 0.0
2018-Sep-13 18:03N 52°58' E 004°47'0 0.0
2018-Sep-13 18:00N 52°58' E 004°47'0 0.0
2018-Sep-13 17:30N 52°58' E 004°47'0 0.0
2018-Sep-13 17:03N 52°58' E 004°47'0 0.0
2018-Sep-13 17:00N 52°58' E 004°47'0 0.0
2018-Sep-13 16:30N 52°58' E 004°47'0 0.0
2018-Sep-13 16:03N 52°58' E 004°47'0 0.0
2018-Sep-13 16:00N 52°58' E 004°47'0 0.0
2018-Sep-13 15:30N 52°58' E 004°47'0 0.0
2018-Sep-13 15:03N 52°58' E 004°47'0 0.0
2018-Sep-13 15:00N 52°58' E 004°47'0 0.0
2018-Sep-13 14:30N 52°58' E 004°47'0 0.0
2018-Sep-13 14:00N 52°58' E 004°47'0 0.0
2018-Sep-13 13:30N 52°58' E 004°47'0 0.3
2018-Sep-13 13:03N 52°58' E 004°47'0 3.8
2018-Sep-13 13:00N 52°58' E 004°47'0 0.1
2018-Sep-13 12:31N 52°58' E 004°47'0 0.2
2018-Sep-13 12:03N 52°58' E 004°47'0 0.4
2018-Sep-13 12:01N 52°58' E 004°47'0 0.2
2018-Sep-13 11:31N 52°58' E 004°47'0 0.4
2018-Sep-13 11:02N 52°58' E 004°47'0 1.2
2018-Sep-13 10:59N 52°58' E 004°47'0 0.1
2018-Sep-13 10:29N 52°58' E 004°47'0 0.0
2018-Sep-13 10:02N 52°58' E 004°47'0 0.1
2018-Sep-13 10:00N 52°58' E 004°47'0 0.8
2018-Sep-13 09:30N 52°58' E 004°47'0 0.2
2018-Sep-13 09:04N 52°58' E 004°47'0 0.2
2018-Sep-13 09:01N 52°58' E 004°47'1 2.1
2018-Sep-13 08:31N 52°59' E 004°47'1 2.4
2018-Sep-13 08:03N 52°58' E 004°47'0 0.9
2018-Sep-13 08:00N 52°58' E 004°47'0 0.3
2018-Sep-13 07:31N 52°58' E 004°47'0 0.5
2018-Sep-13 07:03N 52°58' E 004°47'0 0.0
2018-Sep-13 07:00N 52°58' E 004°47'0 0.0
2018-Sep-13 06:30N 52°58' E 004°47'0 0.0
2018-Sep-13 06:03N 52°58' E 004°47'0 0.0
2018-Sep-13 06:00N 52°58' E 004°47'0 0.0
2018-Sep-13 05:30N 52°58' E 004°47'0 0.0
2018-Sep-13 05:03N 52°58' E 004°47'0 0.0
2018-Sep-13 05:00N 52°58' E 004°47'0 0.0
2018-Sep-13 04:30N 52°58' E 004°47'0 0.0
2018-Sep-13 04:03N 52°58' E 004°47'0 0.0
2018-Sep-13 04:00N 52°58' E 004°47'0 0.0
2018-Sep-13 03:30N 52°58' E 004°47'0 0.0
2018-Sep-13 03:03N 52°58' E 004°47'0 0.0
2018-Sep-13 02:57N 52°58' E 004°47'0 0.0
2018-Sep-13 02:30N 52°58' E 004°47'0 0.0
2018-Sep-13 02:03N 52°58' E 004°47'0 0.0
2018-Sep-13 02:00N 52°58' E 004°47'0 0.0
2018-Sep-13 01:27N 52°58' E 004°47'0 0.0
2018-Sep-13 01:03N 52°58' E 004°47'0 0.0
2018-Sep-13 01:00N 52°58' E 004°47'0 0.0
2018-Sep-13 00:30N 52°58' E 004°47'0 0.0
2018-Sep-13 00:00N 52°58' E 004°47'0 0.0
2018-Sep-12 23:30N 52°58' E 004°47'0 0.0
2018-Sep-12 23:03N 52°58' E 004°47'0 0.0
2018-Sep-12 23:00N 52°58' E 004°47'0 0.0
2018-Sep-12 22:30N 52°58' E 004°47'0 0.0
2018-Sep-12 22:03N 52°58' E 004°47'0 0.0
2018-Sep-12 22:00N 52°58' E 004°47'0 0.0
2018-Sep-12 21:30N 52°58' E 004°47'0 0.0
2018-Sep-12 21:03N 52°58' E 004°47'0 0.0
2018-Sep-12 21:00N 52°58' E 004°47'0 0.0
2018-Sep-12 20:30N 52°58' E 004°47'0 0.0
2018-Sep-12 20:03N 52°58' E 004°47'0 0.0
2018-Sep-12 20:00N 52°58' E 004°47'0 0.0
2018-Sep-12 19:30N 52°58' E 004°47'0 0.0
2018-Sep-12 19:03N 52°58' E 004°47'0 0.0
2018-Sep-12 19:00N 52°58' E 004°47'0 0.0
2018-Sep-12 18:30N 52°58' E 004°47'0 0.0
2018-Sep-12 18:03N 52°58' E 004°47'0 0.0
2018-Sep-12 18:00N 52°58' E 004°47'0 0.0
2018-Sep-12 17:30N 52°58' E 004°47'0 0.0
2018-Sep-12 17:03N 52°58' E 004°47'0 0.0
2018-Sep-12 17:00N 52°58' E 004°47'0 0.0
2018-Sep-12 16:30N 52°58' E 004°47'0 0.0
2018-Sep-12 16:03N 52°58' E 004°47'0 0.0
2018-Sep-12 16:00N 52°58' E 004°47'0 0.0
2018-Sep-12 15:30N 52°58' E 004°47'0 0.0
2018-Sep-12 15:03N 52°58' E 004°47'0 0.0
2018-Sep-12 14:57N 52°58' E 004°47'0 0.0
2018-Sep-12 14:03N 52°58' E 004°47'0 0.0
2018-Sep-12 14:00N 52°58' E 004°47'0 0.0
2018-Sep-12 13:30N 52°58' E 004°47'0 0.0
2018-Sep-12 13:03N 52°58' E 004°47'0 0.0
2018-Sep-12 13:00N 52°58' E 004°47'0 0.0
2018-Sep-12 12:30N 52°58' E 004°47'0 0.0
2018-Sep-12 12:03N 52°58' E 004°47'0 0.0
2018-Sep-12 12:00N 52°58' E 004°47'0 0.0
2018-Sep-12 11:30N 52°58' E 004°47'0 0.0
2018-Sep-12 11:03N 52°58' E 004°47'0 0.0
2018-Sep-12 10:57N 52°58' E 004°47'0 0.0
2018-Sep-12 10:30N 52°58' E 004°47'0 0.0
2018-Sep-12 10:03N 52°58' E 004°47'0 0.0
2018-Sep-12 10:00N 52°58' E 004°47'0 0.0
2018-Sep-12 09:30N 52°58' E 004°47'0 0.0
2018-Sep-12 09:03N 52°58' E 004°47'0 0.0
2018-Sep-12 09:00N 52°58' E 004°47'0 0.0
2018-Sep-12 08:30N 52°58' E 004°47'0 0.0
2018-Sep-12 08:03N 52°58' E 004°47'0 0.0
2018-Sep-12 08:00N 52°58' E 004°47'0 0.0
2018-Sep-12 07:30N 52°58' E 004°47'0 0.0
2018-Sep-12 07:03N 52°58' E 004°47'0 0.0
2018-Sep-12 07:00N 52°58' E 004°47'0 0.0
2018-Sep-12 06:30N 52°58' E 004°47'0 0.0
2018-Sep-12 06:03N 52°58' E 004°47'0 0.0
2018-Sep-12 06:00N 52°58' E 004°47'0 0.0
2018-Sep-12 05:30N 52°58' E 004°47'0 0.0
2018-Sep-12 05:03N 52°58' E 004°47'0 0.1
2018-Sep-12 05:00N 52°58' E 004°47'0 0.0
2018-Sep-12 04:27N 52°58' E 004°47'0 0.0
2018-Sep-12 04:03N 52°58' E 004°47'0 0.0
2018-Sep-12 03:51N 52°58' E 004°47'0 0.0
2018-Sep-12 03:30N 52°58' E 004°47'0 0.0
2018-Sep-12 03:03N 52°58' E 004°47'0 0.0
2018-Sep-12 03:00N 52°58' E 004°47'0 0.0
2018-Sep-12 02:30N 52°58' E 004°47'0 0.0
2018-Sep-12 02:03N 52°58' E 004°47'0 0.0
2018-Sep-12 02:00N 52°58' E 004°47'0 0.0
2018-Sep-12 01:30N 52°58' E 004°47'0 0.0
2018-Sep-12 01:03N 52°58' E 004°47'0 0.1
2018-Sep-12 01:00N 52°58' E 004°47'0 0.0
2018-Sep-12 00:30N 52°58' E 004°47'0 0.0
2018-Sep-12 00:03N 52°58' E 004°47'0 0.0
2018-Sep-12 00:00N 52°58' E 004°47'0 0.0
2018-Sep-11 23:30N 52°58' E 004°47'0 0.0
2018-Sep-11 23:03N 52°58' E 004°47'0 0.0
2018-Sep-11 23:00N 52°58' E 004°47'0 0.0
2018-Sep-11 22:30N 52°58' E 004°47'0 0.0
2018-Sep-11 22:03N 52°58' E 004°47'0 0.0
2018-Sep-11 22:00N 52°58' E 004°47'0 0.0
2018-Sep-11 21:30N 52°58' E 004°47'0 0.0
2018-Sep-11 21:03N 52°58' E 004°47'0 0.0
2018-Sep-11 21:00N 52°58' E 004°47'0 0.0
2018-Sep-11 20:30N 52°58' E 004°47'0 0.0
2018-Sep-11 20:03N 52°58' E 004°47'0 0.0
2018-Sep-11 20:00N 52°58' E 004°47'0 0.0
2018-Sep-11 19:30N 52°58' E 004°47'0 0.0
2018-Sep-11 19:03N 52°58' E 004°47'0 0.0
2018-Sep-11 19:00N 52°58' E 004°47'0 0.0
2018-Sep-11 18:27N 52°58' E 004°47'0 0.0
2018-Sep-11 18:03N 52°58' E 004°47'0 0.0
2018-Sep-11 18:00N 52°58' E 004°47'0 0.0
2018-Sep-11 17:30N 52°58' E 004°47'0 0.0
2018-Sep-11 17:03N 52°58' E 004°47'0 0.0
2018-Sep-11 16:57N 52°58' E 004°47'0 0.0
2018-Sep-11 16:27N 52°58' E 004°47'0 0.0
2018-Sep-11 16:03N 52°58' E 004°47'0 0.0
2018-Sep-11 16:00N 52°58' E 004°47'0 0.0
2018-Sep-11 15:30N 52°58' E 004°47'0 0.0
2018-Sep-11 15:03N 52°58' E 004°47'0 0.0
2018-Sep-11 15:00N 52°58' E 004°47'0 0.0
2018-Sep-11 14:27N 52°58' E 004°47'0 0.0
2018-Sep-11 14:00N 52°58' E 004°47'0 0.4
2018-Sep-11 13:30N 52°57' E 004°47'0 0.4
2018-Sep-11 13:03N 52°57' E 004°47'0 1.3
2018-Sep-11 13:00N 52°57' E 004°47'0 0.2
2018-Sep-11 12:30N 52°57' E 004°47'0 0.4
2018-Sep-11 12:03N 52°58' E 004°47'0 6.2
2018-Sep-11 12:00N 52°58' E 004°47'2 4.6
2018-Sep-11 11:30N 52°58' E 004°43'3 5.6
2018-Sep-11 11:03N 52°59' E 004°48'0 9.5
2018-Sep-11 11:00N 52°58' E 004°47'1 1.4
2018-Sep-11 10:28N 52°58' E 004°47'0 0.0
2018-Sep-11 10:01N 52°58' E 004°47'0 0.0
2018-Sep-11 09:58N 52°58' E 004°47'0 0.0
2018-Sep-11 09:30N 52°58' E 004°47'1 2.7
2018-Sep-11 09:03N 52°59' E 004°46'0 9.5
2018-Sep-11 09:01N 52°58' E 004°45'1 2.9
2018-Sep-11 08:30N 52°59' E 004°48'1 1.4
2018-Sep-11 08:03N 52°58' E 004°47'111.7
2018-Sep-11 08:00N 52°59' E 004°48'1 2.5
2018-Sep-11 07:30N 52°58' E 004°46'1 2.2
2018-Sep-11 07:03N 52°58' E 004°47'0 0.7
2018-Sep-11 07:00N 52°58' E 004°47'0 0.0
2018-Sep-11 06:30N 52°58' E 004°47'0 0.0
2018-Sep-11 06:03N 52°58' E 004°47'0 0.0
2018-Sep-11 06:00N 52°58' E 004°47'0 0.0
2018-Sep-11 05:30N 52°58' E 004°47'0 0.0
2018-Sep-11 05:03N 52°58' E 004°47'0 0.0
2018-Sep-11 04:57N 52°58' E 004°47'0 0.0
2018-Sep-11 04:30N 52°58' E 004°47'0 0.0
2018-Sep-11 04:03N 52°58' E 004°47'0 0.0
2018-Sep-11 04:00N 52°58' E 004°47'0 0.0
2018-Sep-11 03:30N 52°58' E 004°47'0 0.0
2018-Sep-11 03:03N 52°58' E 004°47'0 0.0
2018-Sep-11 02:57N 52°58' E 004°47'0 0.0
2018-Sep-11 02:30N 52°58' E 004°47'0 0.0
2018-Sep-11 02:03N 52°58' E 004°47'0 0.0
2018-Sep-11 02:00N 52°58' E 004°47'0 0.0
2018-Sep-11 01:30N 52°58' E 004°47'0 0.0
2018-Sep-11 01:03N 52°58' E 004°47'0 0.0
2018-Sep-11 01:00N 52°58' E 004°47'0 0.0
2018-Sep-11 00:30N 52°58' E 004°47'0 0.0
2018-Sep-11 00:03N 52°58' E 004°47'0 0.0
2018-Sep-11 00:00N 52°58' E 004°47'0 0.0
2018-Sep-10 23:30N 52°58' E 004°47'0 0.0
2018-Sep-10 23:03N 52°58' E 004°47'0 0.0
2018-Sep-10 23:00N 52°58' E 004°47'0 0.0
2018-Sep-10 22:30N 52°58' E 004°47'0 0.0
2018-Sep-10 22:03N 52°58' E 004°47'0 0.0
2018-Sep-10 22:00N 52°58' E 004°47'0 0.0
2018-Sep-10 21:30N 52°58' E 004°47'0 0.0
2018-Sep-10 21:03N 52°58' E 004°47'0 0.0
2018-Sep-10 21:00N 52°58' E 004°47'0 0.0
2018-Sep-10 20:30N 52°58' E 004°47'0 0.0
2018-Sep-10 20:03N 52°58' E 004°47'0 0.0
2018-Sep-10 20:00N 52°58' E 004°47'0 0.0
2018-Sep-10 19:30N 52°58' E 004°47'0 0.0
2018-Sep-10 19:03N 52°58' E 004°47'0 0.0
2018-Sep-10 19:00N 52°58' E 004°47'0 0.0
2018-Sep-10 18:30N 52°58' E 004°47'0 0.0
2018-Sep-10 18:03N 52°58' E 004°47'0 0.1
2018-Sep-10 18:00N 52°58' E 004°47'0 0.0
2018-Sep-10 17:30N 52°58' E 004°47'0 0.0
2018-Sep-10 17:03N 52°58' E 004°47'0 0.0
2018-Sep-10 17:00N 52°58' E 004°47'0 0.0
2018-Sep-10 16:30N 52°58' E 004°47'0 0.0
2018-Sep-10 16:03N 52°58' E 004°47'0 0.0
2018-Sep-10 16:00N 52°58' E 004°47'0 0.0
2018-Sep-10 15:30N 52°58' E 004°47'0 0.0
2018-Sep-10 15:03N 52°58' E 004°47'0 0.0
2018-Sep-10 15:00N 52°58' E 004°47'0 0.0
2018-Sep-10 14:03N 52°58' E 004°47'0 0.0
2018-Sep-10 14:00N 52°58' E 004°47'0 0.0
2018-Sep-10 13:30N 52°58' E 004°47'2 4.9
2018-Sep-10 13:03N 52°60' E 004°48'0 3.2
2018-Sep-10 13:00N 52°60' E 004°48'3 5.3
2018-Sep-10 12:30N 52°58' E 004°44'2 4.6
2018-Sep-10 12:04N 52°58' E 004°47'0 5.1
2018-Sep-10 12:01N 52°58' E 004°47'1 2.7
2018-Sep-10 11:30N 52°58' E 004°45'2 4.0
2018-Sep-10 11:03N 52°59' E 004°48'0 7.4
2018-Sep-10 11:01N 52°59' E 004°47'1 2.3
2018-Sep-10 10:29N 52°58' E 004°47'0 0.0
2018-Sep-10 10:02N 52°58' E 004°47'0 0.0
2018-Sep-10 09:59N 52°58' E 004°47'0 0.0
2018-Sep-10 09:29N 52°58' E 004°47'0 0.8
2018-Sep-10 09:03N 52°58' E 004°47'110.5
2018-Sep-10 09:00N 52°58' E 004°47'3 5.4
2018-Sep-10 08:30N 52°58' E 004°43'3 6.9
2018-Sep-10 08:03N 52°59' E 004°47'110.6
2018-Sep-10 08:01N 52°59' E 004°48'1 2.7
2018-Sep-10 07:29N 52°58' E 004°47'0 0.0
2018-Sep-10 06:59N 52°58' E 004°47'0 0.0
2018-Sep-10 06:26N 52°58' E 004°47'0 0.0
2018-Sep-10 06:02N 52°58' E 004°47'0 0.0
2018-Sep-10 05:59N 52°58' E 004°47'0 0.0
2018-Sep-10 05:29N 52°58' E 004°47'0 0.0
2018-Sep-10 05:02N 52°58' E 004°47'0 0.0
2018-Sep-10 04:59N 52°58' E 004°47'0 0.0
2018-Sep-10 04:29N 52°58' E 004°47'0 0.0
2018-Sep-10 04:02N 52°58' E 004°47'0 0.0
2018-Sep-10 03:59N 52°58' E 004°47'0 0.0
2018-Sep-10 03:29N 52°58' E 004°47'0 0.0
2018-Sep-10 03:02N 52°58' E 004°47'0 0.0
2018-Sep-10 02:59N 52°58' E 004°47'0 0.0
2018-Sep-10 02:26N 52°58' E 004°47'0 0.0
2018-Sep-10 01:59N 52°58' E 004°47'0 0.0
2018-Sep-10 01:29N 52°58' E 004°47'0 0.0
2018-Sep-10 01:02N 52°58' E 004°47'0 0.0
2018-Sep-10 00:56N 52°58' E 004°47'0 0.0
2018-Sep-10 00:29N 52°58' E 004°47'0 0.0
2018-Sep-10 00:02N 52°58' E 004°47'0 0.0
2018-Sep-09 23:59N 52°58' E 004°47'0 0.0
2018-Sep-09 23:29N 52°58' E 004°47'0 0.0
2018-Sep-09 23:02N 52°58' E 004°47'0 0.0
2018-Sep-09 22:59N 52°58' E 004°47'0 0.0
2018-Sep-09 22:26N 52°58' E 004°47'0 0.0
2018-Sep-09 22:02N 52°58' E 004°47'0 0.0
2018-Sep-09 21:59N 52°58' E 004°47'0 0.0
2018-Sep-09 21:29N 52°58' E 004°47'0 0.0
2018-Sep-09 21:02N 52°58' E 004°47'0 0.0
2018-Sep-09 20:59N 52°58' E 004°47'0 0.0
2018-Sep-09 20:29N 52°58' E 004°47'0 0.0
2018-Sep-09 20:02N 52°58' E 004°47'0 0.1
2018-Sep-09 19:59N 52°58' E 004°47'0 0.0
2018-Sep-09 19:29N 52°58' E 004°47'0 0.0
2018-Sep-09 19:02N 52°58' E 004°47'0 0.1
2018-Sep-09 18:59N 52°58' E 004°47'0 0.0
2018-Sep-09 18:29N 52°58' E 004°47'0 0.0
2018-Sep-09 18:02N 52°58' E 004°47'0 0.0
2018-Sep-09 17:59N 52°58' E 004°47'0 0.0
2018-Sep-09 17:29N 52°58' E 004°47'0 0.0
2018-Sep-09 16:56N 52°58' E 004°47'0 0.0
2018-Sep-09 16:29N 52°58' E 004°47'0 0.0
2018-Sep-09 16:02N 52°58' E 004°47'0 0.0
2018-Sep-09 15:59N 52°58' E 004°47'0 0.0
2018-Sep-09 15:26N 52°58' E 004°47'0 0.0
2018-Sep-09 15:02N 52°58' E 004°47'0 0.0
2018-Sep-09 14:59N 52°58' E 004°47'0 0.0
2018-Sep-09 14:29N 52°58' E 004°47'0 0.0
2018-Sep-09 13:59N 52°58' E 004°47'0 0.0
2018-Sep-09 13:26N 52°58' E 004°47'0 0.0
2018-Sep-09 13:02N 52°58' E 004°47'0 0.0
2018-Sep-09 12:59N 52°58' E 004°47'0 0.0
2018-Sep-09 12:26N 52°58' E 004°47'0 0.0
2018-Sep-09 12:02N 52°58' E 004°47'0 0.0
2018-Sep-09 11:59N 52°58' E 004°47'0 0.0
2018-Sep-09 11:26N 52°58' E 004°47'0 0.0
2018-Sep-09 11:02N 52°58' E 004°47'0 0.0
2018-Sep-09 10:59N 52°58' E 004°47'0 0.0
2018-Sep-09 10:29N 52°58' E 004°47'0 0.0
2018-Sep-09 10:02N 52°58' E 004°47'0 0.0
2018-Sep-09 09:59N 52°58' E 004°47'0 0.0
2018-Sep-09 09:29N 52°58' E 004°47'0 0.0
2018-Sep-09 09:02N 52°58' E 004°47'0 0.0
2018-Sep-09 08:59N 52°58' E 004°47'0 0.0
2018-Sep-09 08:29N 52°58' E 004°47'0 0.0
2018-Sep-09 08:02N 52°58' E 004°47'0 0.0
2018-Sep-09 07:59N 52°58' E 004°47'0 0.0
2018-Sep-09 07:26N 52°58' E 004°47'0 0.0
2018-Sep-09 07:02N 52°58' E 004°47'0 0.0
2018-Sep-09 06:59N 52°58' E 004°47'0 0.0
2018-Sep-09 06:29N 52°58' E 004°47'0 0.0
2018-Sep-09 06:02N 52°58' E 004°47'0 0.1
2018-Sep-09 05:59N 52°58' E 004°47'0 0.0
2018-Sep-09 05:29N 52°58' E 004°47'0 0.0
2018-Sep-09 05:02N 52°58' E 004°47'0 0.0
2018-Sep-09 04:59N 52°58' E 004°47'0 0.0
2018-Sep-09 04:29N 52°58' E 004°47'0 0.0
2018-Sep-09 04:02N 52°58' E 004°47'0 0.0
2018-Sep-09 03:59N 52°58' E 004°47'0 0.0
2018-Sep-09 03:29N 52°58' E 004°47'0 0.0
2018-Sep-09 03:02N 52°58' E 004°47'0 0.1
2018-Sep-09 02:59N 52°58' E 004°47'0 0.0
2018-Sep-09 02:29N 52°58' E 004°47'0 0.0
2018-Sep-09 02:02N 52°58' E 004°47'0 0.0
2018-Sep-09 01:59N 52°58' E 004°47'0 0.0
2018-Sep-09 01:29N 52°58' E 004°47'0 0.0
2018-Sep-09 01:02N 52°58' E 004°47'0 0.0
2018-Sep-09 00:59N 52°58' E 004°47'  
Track history (hours):
 
Tides and Currents Weather Stations Pressure Air Temp Water Temp Dewpoint Dewpoint Depression Visibility Wind Speed Wind Dir Waves Ship Positions

Van Kinsbergen

Last reported at 2018-Sep-19 01:00 UTC. Time now 2018-Sep-19 01:01 UTC.
Position N 52°58' E 004°45'.

Length 40 m; draft 3.4 m.

Type: Military. MMSI: 244736000.

Date/timePositionNaut miles runAvg speedWind from/ knotsBaromVisibWave heightAir tempDewpointWater temp
2018-Sep-19 01:00N 52°58' E 004°45'2 3.3
2018-Sep-19 00:31N 52°58' E 004°47'2 5.2
2018-Sep-19 00:04N 52°60' E 004°48'0 6.8
2018-Sep-19 00:01N 52°60' E 004°48'3 5.6
2018-Sep-18 23:31N 53°02' E 004°52'4 8.0
2018-Sep-18 23:04N 52°60' E 004°47'0 8.7
2018-Sep-18 23:01N 52°59' E 004°47'1 1.0
2018-Sep-18 22:31N 52°59' E 004°47'1 3.1
2018-Sep-18 22:03N 52°58' E 004°47'0 0.8
2018-Sep-18 22:00N 52°58' E 004°47'3 6.0
2018-Sep-18 21:31N 53°00' E 004°49'3 5.7
2018-Sep-18 21:03N 53°02' E 004°52'0 6.2
2018-Sep-18 21:00N 53°02' E 004°53'1 1.1
2018-Sep-18 20:30N 53°02' E 004°52'4 8.0
2018-Sep-18 20:04N 52°60' E 004°47'0 7.9
2018-Sep-18 20:01N 52°59' E 004°47'0 0.4
2018-Sep-18 19:30N 52°59' E 004°47'2 4.1
2018-Sep-18 19:04N 52°58' E 004°47'0 4.5
2018-Sep-18 19:00N 52°58' E 004°47'4 7.1
2018-Sep-18 18:31N 53°01' E 004°50'4 9.3
2018-Sep-18 18:03N 53°04' E 004°55'0 9.9
2018-Sep-18 18:01N 53°04' E 004°56'510.2
2018-Sep-18 17:31N 53°02' E 005°04'510.4
2018-Sep-18 17:03N 53°03' E 005°12'110.3
2018-Sep-18 17:00N 53°03' E 005°13'4 8.7
2018-Sep-18 16:30N 53°05' E 005°19'1 1.6
2018-Sep-18 16:02N 53°05' E 005°20'0 0.1
2018-Sep-18 15:59N 53°05' E 005°20'0 0.0
2018-Sep-18 15:29N 53°05' E 005°20'0 0.0
2018-Sep-18 15:02N 53°05' E 005°20'0 0.0
2018-Sep-18 14:59N 53°05' E 005°20'0 0.0
2018-Sep-18 14:02N 53°05' E 005°20'0 0.1
2018-Sep-18 13:59N 53°05' E 005°20'0 0.0
2018-Sep-18 13:30N 53°05' E 005°20'2 3.7
2018-Sep-18 13:04N 53°05' E 005°17'112.2
2018-Sep-18 13:01N 53°04' E 005°17'612.5
2018-Sep-18 12:31N 53°02' E 005°07'512.1
2018-Sep-18 12:04N 53°04' E 004°58'112.4
2018-Sep-18 12:01N 53°04' E 004°57'713.2
2018-Sep-18 11:31N 52°60' E 004°49'3 5.8
2018-Sep-18 11:04N 52°58' E 004°45'0 7.1
2018-Sep-18 11:00N 52°58' E 004°46'1 2.5
2018-Sep-18 10:30N 52°58' E 004°47'1 2.8
2018-Sep-18 10:04N 52°59' E 004°46'0 7.8
2018-Sep-18 10:01N 52°58' E 004°46'0 0.5
2018-Sep-18 09:31N 52°58' E 004°46'1 2.7
2018-Sep-18 09:04N 52°59' E 004°48'0 8.9
2018-Sep-18 09:01N 52°58' E 004°47'1 2.6
2018-Sep-18 08:30N 52°59' E 004°47'3 5.9
2018-Sep-18 08:03N 52°58' E 004°44'0 2.9
2018-Sep-18 08:00N 52°58' E 004°44'2 5.0
2018-Sep-18 07:31N 52°60' E 004°47'1 2.3
2018-Sep-18 07:03N 52°59' E 004°47'0 7.7
2018-Sep-18 07:00N 52°59' E 004°48'2 3.9
2018-Sep-18 06:30N 52°58' E 004°45'2 4.4
2018-Sep-18 06:03N 52°59' E 004°47'0 6.2
2018-Sep-18 06:01N 52°59' E 004°47'1 1.6
2018-Sep-18 05:31N 52°59' E 004°46'2 5.2
2018-Sep-18 05:03N 52°58' E 004°43'111.5
2018-Sep-18 05:01N 52°58' E 004°44'2 4.4
2018-Sep-18 04:31N 52°58' E 004°47'2 4.0
2018-Sep-18 04:04N 52°59' E 004°45'0 6.7
2018-Sep-18 04:01N 52°59' E 004°45'3 6.8
2018-Sep-18 03:31N 52°56' E 004°41'0 0.6
2018-Sep-18 03:03N 52°56' E 004°40'110.5
2018-Sep-18 03:01N 52°56' E 004°41'510.3
2018-Sep-18 02:31N 52°60' E 004°48'2 4.3
2018-Sep-18 02:03N 52°58' E 004°47'0 2.1
2018-Sep-18 02:01N 52°58' E 004°47'2 4.8
2018-Sep-18 01:30N 52°58' E 004°43'1 1.7
2018-Sep-18 01:04N 52°58' E 004°42'0 7.6
2018-Sep-18 01:01N 52°58' E 004°43'3 6.4
2018-Sep-18 00:30N 52°59' E 004°48'1 3.2
2018-Sep-18 00:04N 52°58' E 004°47'0 7.2
2018-Sep-18 00:00N 52°58' E 004°47'3 5.3
2018-Sep-17 23:30N 52°58' E 004°43'3 6.6
2018-Sep-17 23:03N 52°56' E 004°40'0 6.6
2018-Sep-17 23:00N 52°56' E 004°40'3 6.9
2018-Sep-17 22:30N 52°58' E 004°44'2 4.5
2018-Sep-17 22:04N 52°58' E 004°47'0 7.2
2018-Sep-17 22:00N 52°58' E 004°47'1 2.2
2018-Sep-17 21:31N 52°59' E 004°46'0 0.6
2018-Sep-17 21:04N 52°59' E 004°46'0 6.2
2018-Sep-17 21:00N 52°59' E 004°47'2 3.2
2018-Sep-17 20:31N 52°58' E 004°47'2 3.6
2018-Sep-17 20:03N 52°59' E 004°46'111.0
2018-Sep-17 20:01N 52°59' E 004°45'5 9.7
2018-Sep-17 19:31N 52°55' E 004°40'3 5.7
2018-Sep-17 19:04N 52°53' E 004°37'0 6.7
2018-Sep-17 19:01N 52°54' E 004°38'4 7.4
2018-Sep-17 18:31N 52°57' E 004°41'4 8.3
2018-Sep-17 18:03N 52°59' E 004°46'111.3
2018-Sep-17 18:00N 52°59' E 004°47'2 3.3
2018-Sep-17 17:30N 52°58' E 004°47'0 0.0
2018-Sep-17 17:03N 52°58' E 004°47'0 0.0
2018-Sep-17 17:00N 52°58' E 004°47'0 0.0
2018-Sep-17 16:30N 52°58' E 004°47'0 0.0
2018-Sep-17 16:03N 52°58' E 004°47'0 0.0
2018-Sep-17 16:00N 52°58' E 004°47'0 0.0
2018-Sep-17 15:30N 52°58' E 004°47'0 0.0
2018-Sep-17 15:03N 52°58' E 004°47'0 0.0
2018-Sep-17 15:00N 52°58' E 004°47'0 0.0
2018-Sep-17 14:30N 52°58' E 004°47'0 0.6
2018-Sep-17 14:01N 52°57' E 004°47'2 3.7
2018-Sep-17 13:30N 52°58' E 004°45'4 9.6
2018-Sep-17 13:04N 52°55' E 004°40'110.1
2018-Sep-17 13:01N 52°55' E 004°39'4 7.5
2018-Sep-17 12:31N 52°56' E 004°33'510.4
2018-Sep-17 12:04N 53°00' E 004°34'110.4
2018-Sep-17 12:00N 53°01' E 004°34'5 9.6
2018-Sep-17 11:31N 53°05' E 004°37'4 9.7
2018-Sep-17 11:03N 53°09' E 004°41'0 9.1
2018-Sep-17 11:01N 53°09' E 004°41'5 9.0
2018-Sep-17 10:30N 53°13' E 004°45'4 8.7
2018-Sep-17 10:01N 53°15' E 004°51'0 8.6
2018-Sep-17 10:00N 53°16' E 004°51'4 8.8
2018-Sep-17 09:30N 53°18' E 004°57'4 7.1
2018-Sep-17 09:01N 53°19' E 005°03'0 5.5
2018-Sep-17 09:01N 53°19' E 005°03'4 7.7
2018-Sep-17 08:31N 53°19' E 005°09'3 6.4
2018-Sep-17 08:03N 53°18' E 005°13'0 7.3
2018-Sep-17 08:01N 53°18' E 005°14'3 5.4
2018-Sep-17 07:31N 53°21' E 005°12'1 1.5
2018-Sep-17 06:56N 53°21' E 005°13'0 0.0
2018-Sep-17 06:29N 53°21' E 005°13'0 0.0
2018-Sep-17 06:02N 53°21' E 005°13'0 0.1
2018-Sep-17 05:56N 53°21' E 005°13'0 0.0
2018-Sep-17 05:29N 53°21' E 005°13'0 0.0
2018-Sep-17 04:59N 53°21' E 005°13'0 0.0
2018-Sep-17 04:26N 53°21' E 005°13'0 0.0
2018-Sep-17 04:02N 53°21' E 005°13'0 0.1
2018-Sep-17 03:59N 53°21' E 005°13'0 0.0
2018-Sep-17 03:29N 53°21' E 005°13'0 0.0
2018-Sep-17 02:56N 53°21' E 005°13'0 0.0
2018-Sep-17 02:29N 53°21' E 005°13'0 0.0
2018-Sep-17 02:02N 53°21' E 005°13'0 0.0
2018-Sep-17 01:53N 53°21' E 005°13'0 0.0
2018-Sep-17 01:17N 53°21' E 005°13'0 0.0
2018-Sep-17 01:02N 53°21' E 005°13'0 0.0
2018-Sep-17 00:59N 53°21' E 005°13'0 0.0
2018-Sep-17 00:17N 53°21' E 005°13'0 0.0
2018-Sep-16 23:59N 53°21' E 005°13'0 0.0
2018-Sep-16 23:29N 53°21' E 005°13'0 0.0
2018-Sep-16 22:59N 53°21' E 005°13'0 0.0
2018-Sep-16 22:29N 53°21' E 005°13'0 0.0
2018-Sep-16 21:59N 53°21' E 005°13'0 0.0
2018-Sep-16 21:29N 53°21' E 005°13'0 0.0
2018-Sep-16 21:02N 53°21' E 005°13'0 0.0
2018-Sep-16 20:59N 53°21' E 005°13'0 0.0
2018-Sep-16 20:29N 53°21' E 005°13'0 0.0
2018-Sep-16 20:02N 53°21' E 005°13'0 0.0
2018-Sep-16 19:59N 53°21' E 005°13'0 0.0
2018-Sep-16 19:29N 53°21' E 005°13'0 0.0
2018-Sep-16 19:02N 53°21' E 005°13'0 0.0
2018-Sep-16 18:59N 53°21' E 005°13'0 0.0
2018-Sep-16 18:29N 53°21' E 005°13'0 0.0
2018-Sep-16 17:53N 53°21' E 005°13'0 0.0
2018-Sep-16 17:29N 53°21' E 005°13'0 0.0
2018-Sep-16 16:59N 53°21' E 005°13'0 0.0
2018-Sep-16 16:29N 53°21' E 005°13'0 0.0
2018-Sep-16 15:56N 53°21' E 005°13'0 0.0
2018-Sep-16 15:29N 53°21' E 005°13'0 0.0
2018-Sep-16 15:02N 53°21' E 005°13'0 0.0
2018-Sep-16 14:59N 53°21' E 005°13'3 3.0
2018-Sep-16 14:01N 53°19' E 005°15'5 9.9
2018-Sep-16 13:30N 53°14' E 005°11'510.8
2018-Sep-16 13:04N 53°12' E 005°18'111.2
2018-Sep-16 13:01N 53°12' E 005°19'4 7.3
2018-Sep-16 12:30N 53°09' E 005°23'3 6.6
2018-Sep-16 12:04N 53°06' E 005°22'0 6.1
2018-Sep-16 12:00N 53°06' E 005°22'510.7
2018-Sep-16 11:31N 53°04' E 005°15'613.1
2018-Sep-16 11:04N 53°02' E 005°05'113.2
2018-Sep-16 11:00N 53°02' E 005°04'611.9
2018-Sep-16 10:30N 53°03' E 004°54'613.7
2018-Sep-16 10:03N 52°58' E 004°47'0 8.2
2018-Sep-16 10:00N 52°58' E 004°47'0 0.2
2018-Sep-16 09:30N 52°58' E 004°47'0 0.0
2018-Sep-16 09:03N 52°58' E 004°47'0 0.0
2018-Sep-16 09:00N 52°58' E 004°47'0 0.0
2018-Sep-16 08:30N 52°58' E 004°47'0 0.0
2018-Sep-16 08:03N 52°58' E 004°47'0 0.0
2018-Sep-16 08:00N 52°58' E 004°47'0 0.0
2018-Sep-16 07:30N 52°58' E 004°47'0 0.0
2018-Sep-16 07:03N 52°58' E 004°47'0 0.0
2018-Sep-16 07:00N 52°58' E 004°47'0 0.0
2018-Sep-16 06:30N 52°58' E 004°47'0 0.0
2018-Sep-16 06:03N 52°58' E 004°47'0 0.0
2018-Sep-16 06:00N 52°58' E 004°47'0 0.0
2018-Sep-16 05:30N 52°58' E 004°47'0 0.0
2018-Sep-16 05:03N 52°58' E 004°47'0 0.0
2018-Sep-16 05:00N 52°58' E 004°47'0 0.0
2018-Sep-16 04:30N 52°58' E 004°47'0 0.0
2018-Sep-16 04:00N 52°58' E 004°47'0 0.0
2018-Sep-16 03:30N 52°58' E 004°47'0 0.0
2018-Sep-16 03:03N 52°58' E 004°47'0 0.0
2018-Sep-16 03:00N 52°58' E 004°47'0 0.0
2018-Sep-16 02:30N 52°58' E 004°47'0 0.0
2018-Sep-16 02:03N 52°58' E 004°47'0 0.0
2018-Sep-16 02:00N 52°58' E 004°47'0 0.0
2018-Sep-16 01:30N 52°58' E 004°47'0 0.0
2018-Sep-16 01:03N 52°58' E 004°47'0 0.0
2018-Sep-16 01:00N 52°58' E 004°47'0 0.0
2018-Sep-16 00:30N 52°58' E 004°47'0 0.0
2018-Sep-16 00:03N 52°58' E 004°47'0 0.0
2018-Sep-16 00:00N 52°58' E 004°47'0 0.0
2018-Sep-15 23:30N 52°58' E 004°47'0 0.0
2018-Sep-15 23:03N 52°58' E 004°47'0 0.0
2018-Sep-15 23:00N 52°58' E 004°47'0 0.0
2018-Sep-15 22:30N 52°58' E 004°47'0 0.0
2018-Sep-15 22:03N 52°58' E 004°47'0 0.0
2018-Sep-15 22:00N 52°58' E 004°47'0 0.0
2018-Sep-15 21:30N 52°58' E 004°47'0 0.0
2018-Sep-15 21:03N 52°58' E 004°47'0 0.1
2018-Sep-15 21:00N 52°58' E 004°47'0 0.0
2018-Sep-15 20:30N 52°58' E 004°47'0 0.0
2018-Sep-15 20:03N 52°58' E 004°47'0 0.0
2018-Sep-15 20:00N 52°58' E 004°47'0 0.0
2018-Sep-15 19:30N 52°58' E 004°47'0 0.0
2018-Sep-15 19:03N 52°58' E 004°47'0 0.1
2018-Sep-15 19:00N 52°58' E 004°47'0 0.0
2018-Sep-15 18:30N 52°58' E 004°47'0 0.0
2018-Sep-15 17:57N 52°58' E 004°47'0 0.0
2018-Sep-15 17:30N 52°58' E 004°47'0 0.0
2018-Sep-15 17:03N 52°58' E 004°47'0 0.0
2018-Sep-15 17:00N 52°58' E 004°47'0 0.0
2018-Sep-15 16:30N 52°58' E 004°47'0 0.0
2018-Sep-15 16:03N 52°58' E 004°47'0 0.0
2018-Sep-15 16:00N 52°58' E 004°47'0 0.0
2018-Sep-15 15:30N 52°58' E 004°47'0 0.0
2018-Sep-15 15:03N 52°58' E 004°47'0 0.0
2018-Sep-15 14:30N 52°58' E 004°47'0 0.0
2018-Sep-15 14:00N 52°58' E 004°47'0 0.0
2018-Sep-15 13:30N 52°58' E 004°47'0 0.0
2018-Sep-15 13:03N 52°58' E 004°47'0 0.0
2018-Sep-15 13:00N 52°58' E 004°47'0 0.0
2018-Sep-15 12:30N 52°58' E 004°47'0 0.0
2018-Sep-15 12:03N 52°58' E 004°47'0 0.0
2018-Sep-15 12:00N 52°58' E 004°47'0 0.0
2018-Sep-15 11:30N 52°58' E 004°47'0 0.0
2018-Sep-15 11:03N 52°58' E 004°47'0 0.0
2018-Sep-15 11:00N 52°58' E 004°47'0 0.0
2018-Sep-15 10:30N 52°58' E 004°47'0 0.0
2018-Sep-15 10:03N 52°58' E 004°47'0 0.0
2018-Sep-15 10:00N 52°58' E 004°47'0 0.0
2018-Sep-15 09:30N 52°58' E 004°47'0 0.0
2018-Sep-15 09:03N 52°58' E 004°47'0 0.0
2018-Sep-15 09:00N 52°58' E 004°47'0 0.0
2018-Sep-15 08:30N 52°58' E 004°47'0 0.0
2018-Sep-15 08:03N 52°58' E 004°47'0 0.0
2018-Sep-15 07:57N 52°58' E 004°47'0 0.0
2018-Sep-15 07:30N 52°58' E 004°47'0 0.0
2018-Sep-15 07:03N 52°58' E 004°47'0 0.0
2018-Sep-15 07:00N 52°58' E 004°47'0 0.0
2018-Sep-15 06:30N 52°58' E 004°47'0 0.0
2018-Sep-15 06:03N 52°58' E 004°47'0 0.0
2018-Sep-15 06:00N 52°58' E 004°47'0 0.0
2018-Sep-15 05:30N 52°58' E 004°47'0 0.0
2018-Sep-15 05:03N 52°58' E 004°47'0 0.0
2018-Sep-15 05:00N 52°58' E 004°47'0 0.0
2018-Sep-15 04:30N 52°58' E 004°47'0 0.0
2018-Sep-15 04:03N 52°58' E 004°47'0 0.0
2018-Sep-15 04:00N 52°58' E 004°47'0 0.0
2018-Sep-15 03:30N 52°58' E 004°47'0 0.0
2018-Sep-15 03:03N 52°58' E 004°47'0 0.0
2018-Sep-15 02:54N 52°58' E 004°47'0 0.0
2018-Sep-15 02:30N 52°58' E 004°47'0 0.0
2018-Sep-15 02:03N 52°58' E 004°47'0 0.0
2018-Sep-15 02:00N 52°58' E 004°47'0 0.0
2018-Sep-15 01:30N 52°58' E 004°47'0 0.0
2018-Sep-15 01:03N 52°58' E 004°47'0 0.0
2018-Sep-15 01:00N 52°58' E 004°47'0 0.0
2018-Sep-15 00:30N 52°58' E 004°47'0 0.0
2018-Sep-15 00:03N 52°58' E 004°47'0 0.0
2018-Sep-15 00:00N 52°58' E 004°47'0 0.0
2018-Sep-14 23:30N 52°58' E 004°47'0 0.0
2018-Sep-14 23:03N 52°58' E 004°47'0 0.0
2018-Sep-14 23:00N 52°58' E 004°47'0 0.0
2018-Sep-14 22:30N 52°58' E 004°47'0 0.0
2018-Sep-14 22:03N 52°58' E 004°47'0 0.1
2018-Sep-14 22:00N 52°58' E 004°47'0 0.0
2018-Sep-14 21:30N 52°58' E 004°47'0 0.0
2018-Sep-14 21:03N 52°58' E 004°47'0 0.0
2018-Sep-14 20:57N 52°58' E 004°47'0 0.0
2018-Sep-14 20:30N 52°58' E 004°47'0 0.0
2018-Sep-14 20:00N 52°58' E 004°47'0 0.0
2018-Sep-14 19:27N 52°58' E 004°47'0 0.0
2018-Sep-14 19:00N 52°58' E 004°47'0 0.0
2018-Sep-14 18:30N 52°58' E 004°47'0 0.0
2018-Sep-14 18:03N 52°58' E 004°47'0 0.0
2018-Sep-14 18:00N 52°58' E 004°47'0 0.0
2018-Sep-14 17:30N 52°58' E 004°47'0 0.0
2018-Sep-14 17:03N 52°58' E 004°47'0 0.0
2018-Sep-14 17:00N 52°58' E 004°47'0 0.0
2018-Sep-14 16:30N 52°58' E 004°47'0 0.0
2018-Sep-14 16:03N 52°58' E 004°47'0 0.0
2018-Sep-14 16:00N 52°58' E 004°47'0 0.0
2018-Sep-14 15:30N 52°58' E 004°47'0 0.0
2018-Sep-14 14:57N 52°58' E 004°47'0 0.0
2018-Sep-14 14:30N 52°58' E 004°47'0 0.0
2018-Sep-14 14:00N 52°58' E 004°47'0 0.0
2018-Sep-14 13:27N 52°58' E 004°47'0 0.0
2018-Sep-14 12:48N 52°58' E 004°47'0 0.8
2018-Sep-14 12:31N 52°58' E 004°47'1 2.9
2018-Sep-14 12:03N 52°58' E 004°45'0 6.5
2018-Sep-14 12:01N 52°58' E 004°45'1 2.0
2018-Sep-14 11:31N 52°59' E 004°46'1 2.8
2018-Sep-14 11:04N 52°58' E 004°47'0 1.2
2018-Sep-14 11:00N 52°58' E 004°47'0 0.0
2018-Sep-14 10:28N 52°58' E 004°47'0 0.4
2018-Sep-14 10:04N 52°58' E 004°47'0 5.8
2018-Sep-14 10:01N 52°58' E 004°47'1 2.2
2018-Sep-14 09:31N 52°58' E 004°46'1 1.7
2018-Sep-14 09:03N 52°59' E 004°46'0 4.4
2018-Sep-14 09:00N 52°59' E 004°46'1 2.2
2018-Sep-14 08:31N 52°58' E 004°47'1 2.3
2018-Sep-14 08:03N 52°58' E 004°46'113.2
2018-Sep-14 08:00N 52°58' E 004°44'2 4.3
2018-Sep-14 07:30N 52°60' E 004°47'2 4.3
2018-Sep-14 07:03N 52°58' E 004°47'0 0.0
2018-Sep-14 07:00N 52°58' E 004°47'0 0.0
2018-Sep-14 06:30N 52°58' E 004°47'0 0.0
2018-Sep-14 06:00N 52°58' E 004°47'0 0.0
2018-Sep-14 05:30N 52°58' E 004°47'0 0.0
2018-Sep-14 05:03N 52°58' E 004°47'0 0.0
2018-Sep-14 05:00N 52°58' E 004°47'0 0.0
2018-Sep-14 04:30N 52°58' E 004°47'0 0.0
2018-Sep-14 04:03N 52°58' E 004°47'0 0.0
2018-Sep-14 03:57N 52°58' E 004°47'0 0.0
2018-Sep-14 03:30N 52°58' E 004°47'0 0.0
2018-Sep-14 03:03N 52°58' E 004°47'0 0.0
2018-Sep-14 03:00N 52°58' E 004°47'0 0.0
2018-Sep-14 02:30N 52°58' E 004°47'0 0.0
2018-Sep-14 02:03N 52°58' E 004°47'0 0.0
2018-Sep-14 02:00N 52°58' E 004°47'0 0.0
2018-Sep-14 01:30N 52°58' E 004°47'0 0.0
2018-Sep-14 01:03N 52°58' E 004°47'0 0.0
2018-Sep-14 01:00N 52°58' E 004°47'0 0.0
2018-Sep-14 00:30N 52°58' E 004°47'0 0.0
2018-Sep-14 00:03N 52°58' E 004°47'0 0.0
2018-Sep-14 00:00N 52°58' E 004°47'0 0.0
2018-Sep-13 23:30N 52°58' E 004°47'0 0.0
2018-Sep-13 23:03N 52°58' E 004°47'0 0.0
2018-Sep-13 23:00N 52°58' E 004°47'0 0.0
2018-Sep-13 22:30N 52°58' E 004°47'0 0.0
2018-Sep-13 22:03N 52°58' E 004°47'0 0.0
2018-Sep-13 22:00N 52°58' E 004°47'0 0.0
2018-Sep-13 21:30N 52°58' E 004°47'0 0.0
2018-Sep-13 21:03N 52°58' E 004°47'0 0.0
2018-Sep-13 21:00N 52°58' E 004°47'0 0.0
2018-Sep-13 20:30N 52°58' E 004°47'0 0.0
2018-Sep-13 20:03N 52°58' E 004°47'0 0.1
2018-Sep-13 20:00N 52°58' E 004°47'0 0.0
2018-Sep-13 19:30N 52°58' E 004°47'0 0.0
2018-Sep-13 19:03N 52°58' E 004°47'0 0.0
2018-Sep-13 19:00N 52°58' E 004°47'0 0.0
2018-Sep-13 18:27N 52°58' E 004°47'0 0.0
2018-Sep-13 18:03N 52°58' E 004°47'0 0.0
2018-Sep-13 18:00N 52°58' E 004°47'0 0.0
2018-Sep-13 17:30N 52°58' E 004°47'0 0.0
2018-Sep-13 17:03N 52°58' E 004°47'0 0.0
2018-Sep-13 17:00N 52°58' E 004°47'0 0.0
2018-Sep-13 16:30N 52°58' E 004°47'0 0.0
2018-Sep-13 16:03N 52°58' E 004°47'0 0.0
2018-Sep-13 16:00N 52°58' E 004°47'0 0.0
2018-Sep-13 15:30N 52°58' E 004°47'0 0.0
2018-Sep-13 15:03N 52°58' E 004°47'0 0.0
2018-Sep-13 15:00N 52°58' E 004°47'0 0.0
2018-Sep-13 14:30N 52°58' E 004°47'0 0.0
2018-Sep-13 14:00N 52°58' E 004°47'0 0.0
2018-Sep-13 13:30N 52°58' E 004°47'0 0.3
2018-Sep-13 13:03N 52°58' E 004°47'0 3.8
2018-Sep-13 13:00N 52°58' E 004°47'0 0.1
2018-Sep-13 12:31N 52°58' E 004°47'0 0.2
2018-Sep-13 12:03N 52°58' E 004°47'0 0.4
2018-Sep-13 12:01N 52°58' E 004°47'0 0.2
2018-Sep-13 11:31N 52°58' E 004°47'0 0.4
2018-Sep-13 11:02N 52°58' E 004°47'0 1.2
2018-Sep-13 10:59N 52°58' E 004°47'0 0.1
2018-Sep-13 10:29N 52°58' E 004°47'0 0.0
2018-Sep-13 10:02N 52°58' E 004°47'0 0.1
2018-Sep-13 10:00N 52°58' E 004°47'0 0.8
2018-Sep-13 09:30N 52°58' E 004°47'0 0.2
2018-Sep-13 09:04N 52°58' E 004°47'0 0.2
2018-Sep-13 09:01N 52°58' E 004°47'1 2.1
2018-Sep-13 08:31N 52°59' E 004°47'1 2.4
2018-Sep-13 08:03N 52°58' E 004°47'0 0.9
2018-Sep-13 08:00N 52°58' E 004°47'0 0.3
2018-Sep-13 07:31N 52°58' E 004°47'0 0.5
2018-Sep-13 07:03N 52°58' E 004°47'0 0.0
2018-Sep-13 07:00N 52°58' E 004°47'0 0.0
2018-Sep-13 06:30N 52°58' E 004°47'0 0.0
2018-Sep-13 06:03N 52°58' E 004°47'0 0.0
2018-Sep-13 06:00N 52°58' E 004°47'0 0.0
2018-Sep-13 05:30N 52°58' E 004°47'0 0.0
2018-Sep-13 05:03N 52°58' E 004°47'0 0.0
2018-Sep-13 05:00N 52°58' E 004°47'0 0.0
2018-Sep-13 04:30N 52°58' E 004°47'0 0.0
2018-Sep-13 04:03N 52°58' E 004°47'0 0.0
2018-Sep-13 04:00N 52°58' E 004°47'0 0.0
2018-Sep-13 03:30N 52°58' E 004°47'0 0.0
2018-Sep-13 03:03N 52°58' E 004°47'0 0.0
2018-Sep-13 02:57N 52°58' E 004°47'0 0.0
2018-Sep-13 02:30N 52°58' E 004°47'0 0.0
2018-Sep-13 02:03N 52°58' E 004°47'0 0.0
2018-Sep-13 02:00N 52°58' E 004°47'0 0.0
2018-Sep-13 01:27N 52°58' E 004°47'0 0.0
2018-Sep-13 01:03N 52°58' E 004°47'0 0.0
2018-Sep-13 01:00N 52°58' E 004°47'0 0.0
2018-Sep-13 00:30N 52°58' E 004°47'0 0.0
2018-Sep-13 00:00N 52°58' E 004°47'0 0.0
2018-Sep-12 23:30N 52°58' E 004°47'0 0.0
2018-Sep-12 23:03N 52°58' E 004°47'0 0.0
2018-Sep-12 23:00N 52°58' E 004°47'0 0.0
2018-Sep-12 22:30N 52°58' E 004°47'0 0.0
2018-Sep-12 22:03N 52°58' E 004°47'0 0.0
2018-Sep-12 22:00N 52°58' E 004°47'0 0.0
2018-Sep-12 21:30N 52°58' E 004°47'0 0.0
2018-Sep-12 21:03N 52°58' E 004°47'0 0.0
2018-Sep-12 21:00N 52°58' E 004°47'0 0.0
2018-Sep-12 20:30N 52°58' E 004°47'0 0.0
2018-Sep-12 20:03N 52°58' E 004°47'0 0.0
2018-Sep-12 20:00N 52°58' E 004°47'0 0.0
2018-Sep-12 19:30N 52°58' E 004°47'0 0.0
2018-Sep-12 19:03N 52°58' E 004°47'0 0.0
2018-Sep-12 19:00N 52°58' E 004°47'0 0.0
2018-Sep-12 18:30N 52°58' E 004°47'0 0.0
2018-Sep-12 18:03N 52°58' E 004°47'0 0.0
2018-Sep-12 18:00N 52°58' E 004°47'0 0.0
2018-Sep-12 17:30N 52°58' E 004°47'0 0.0
2018-Sep-12 17:03N 52°58' E 004°47'0 0.0
2018-Sep-12 17:00N 52°58' E 004°47'0 0.0
2018-Sep-12 16:30N 52°58' E 004°47'0 0.0
2018-Sep-12 16:03N 52°58' E 004°47'0 0.0
2018-Sep-12 16:00N 52°58' E 004°47'0 0.0
2018-Sep-12 15:30N 52°58' E 004°47'0 0.0
2018-Sep-12 15:03N 52°58' E 004°47'0 0.0
2018-Sep-12 14:57N 52°58' E 004°47'0 0.0
2018-Sep-12 14:03N 52°58' E 004°47'0 0.0
2018-Sep-12 14:00N 52°58' E 004°47'0 0.0
2018-Sep-12 13:30N 52°58' E 004°47'0 0.0
2018-Sep-12 13:03N 52°58' E 004°47'0 0.0
2018-Sep-12 13:00N 52°58' E 004°47'0 0.0
2018-Sep-12 12:30N 52°58' E 004°47'0 0.0
2018-Sep-12 12:03N 52°58' E 004°47'0 0.0
2018-Sep-12 12:00N 52°58' E 004°47'0 0.0
2018-Sep-12 11:30N 52°58' E 004°47'0 0.0
2018-Sep-12 11:03N 52°58' E 004°47'0 0.0
2018-Sep-12 10:57N 52°58' E 004°47'0 0.0
2018-Sep-12 10:30N 52°58' E 004°47'0 0.0
2018-Sep-12 10:03N 52°58' E 004°47'0 0.0
2018-Sep-12 10:00N 52°58' E 004°47'0 0.0
2018-Sep-12 09:30N 52°58' E 004°47'0 0.0
2018-Sep-12 09:03N 52°58' E 004°47'0 0.0
2018-Sep-12 09:00N 52°58' E 004°47'0 0.0
2018-Sep-12 08:30N 52°58' E 004°47'0 0.0
2018-Sep-12 08:03N 52°58' E 004°47'0 0.0
2018-Sep-12 08:00N 52°58' E 004°47'0 0.0
2018-Sep-12 07:30N 52°58' E 004°47'0 0.0
2018-Sep-12 07:03N 52°58' E 004°47'0 0.0
2018-Sep-12 07:00N 52°58' E 004°47'0 0.0
2018-Sep-12 06:30N 52°58' E 004°47'0 0.0
2018-Sep-12 06:03N 52°58' E 004°47'0 0.0
2018-Sep-12 06:00N 52°58' E 004°47'0 0.0
2018-Sep-12 05:30N 52°58' E 004°47'0 0.0
2018-Sep-12 05:03N 52°58' E 004°47'0 0.1
2018-Sep-12 05:00N 52°58' E 004°47'0 0.0
2018-Sep-12 04:27N 52°58' E 004°47'0 0.0
2018-Sep-12 04:03N 52°58' E 004°47'0 0.0
2018-Sep-12 03:51N 52°58' E 004°47'0 0.0
2018-Sep-12 03:30N 52°58' E 004°47'0 0.0
2018-Sep-12 03:03N 52°58' E 004°47'0 0.0
2018-Sep-12 03:00N 52°58' E 004°47'0 0.0
2018-Sep-12 02:30N 52°58' E 004°47'0 0.0
2018-Sep-12 02:03N 52°58' E 004°47'0 0.0
2018-Sep-12 02:00N 52°58' E 004°47'0 0.0
2018-Sep-12 01:30N 52°58' E 004°47'0 0.0
2018-Sep-12 01:03N 52°58' E 004°47'0 0.1
2018-Sep-12 01:00N 52°58' E 004°47'0 0.0
2018-Sep-12 00:30N 52°58' E 004°47'0 0.0
2018-Sep-12 00:03N 52°58' E 004°47'0 0.0
2018-Sep-12 00:00N 52°58' E 004°47'0 0.0
2018-Sep-11 23:30N 52°58' E 004°47'0 0.0
2018-Sep-11 23:03N 52°58' E 004°47'0 0.0
2018-Sep-11 23:00N 52°58' E 004°47'0 0.0
2018-Sep-11 22:30N 52°58' E 004°47'0 0.0
2018-Sep-11 22:03N 52°58' E 004°47'0 0.0
2018-Sep-11 22:00N 52°58' E 004°47'0 0.0
2018-Sep-11 21:30N 52°58' E 004°47'0 0.0
2018-Sep-11 21:03N 52°58' E 004°47'0 0.0
2018-Sep-11 21:00N 52°58' E 004°47'0 0.0
2018-Sep-11 20:30N 52°58' E 004°47'0 0.0
2018-Sep-11 20:03N 52°58' E 004°47'0 0.0
2018-Sep-11 20:00N 52°58' E 004°47'0 0.0
2018-Sep-11 19:30N 52°58' E 004°47'0 0.0
2018-Sep-11 19:03N 52°58' E 004°47'0 0.0
2018-Sep-11 19:00N 52°58' E 004°47'0 0.0
2018-Sep-11 18:27N 52°58' E 004°47'0 0.0
2018-Sep-11 18:03N 52°58' E 004°47'0 0.0
2018-Sep-11 18:00N 52°58' E 004°47'0 0.0
2018-Sep-11 17:30N 52°58' E 004°47'0 0.0
2018-Sep-11 17:03N 52°58' E 004°47'0 0.0
2018-Sep-11 16:57N 52°58' E 004°47'0 0.0
2018-Sep-11 16:27N 52°58' E 004°47'0 0.0
2018-Sep-11 16:03N 52°58' E 004°47'0 0.0
2018-Sep-11 16:00N 52°58' E 004°47'0 0.0
2018-Sep-11 15:30N 52°58' E 004°47'0 0.0
2018-Sep-11 15:03N 52°58' E 004°47'0 0.0
2018-Sep-11 15:00N 52°58' E 004°47'0 0.0
2018-Sep-11 14:27N 52°58' E 004°47'0 0.0
2018-Sep-11 14:00N 52°58' E 004°47'0 0.4
2018-Sep-11 13:30N 52°57' E 004°47'0 0.4
2018-Sep-11 13:03N 52°57' E 004°47'0 1.3
2018-Sep-11 13:00N 52°57' E 004°47'0 0.2
2018-Sep-11 12:30N 52°57' E 004°47'0 0.4
2018-Sep-11 12:03N 52°58' E 004°47'0 6.2
2018-Sep-11 12:00N 52°58' E 004°47'2 4.6
2018-Sep-11 11:30N 52°58' E 004°43'3 5.6
2018-Sep-11 11:03N 52°59' E 004°48'0 9.5
2018-Sep-11 11:00N 52°58' E 004°47'1 1.4
2018-Sep-11 10:28N 52°58' E 004°47'0 0.0
2018-Sep-11 10:01N 52°58' E 004°47'0 0.0
2018-Sep-11 09:58N 52°58' E 004°47'0 0.0
2018-Sep-11 09:30N 52°58' E 004°47'1 2.7
2018-Sep-11 09:03N 52°59' E 004°46'0 9.5
2018-Sep-11 09:01N 52°58' E 004°45'1 2.9
2018-Sep-11 08:30N 52°59' E 004°48'1 1.4
2018-Sep-11 08:03N 52°58' E 004°47'111.7
2018-Sep-11 08:00N 52°59' E 004°48'1 2.5
2018-Sep-11 07:30N 52°58' E 004°46'1 2.2
2018-Sep-11 07:03N 52°58' E 004°47'0 0.7
2018-Sep-11 07:00N 52°58' E 004°47'0 0.0
2018-Sep-11 06:30N 52°58' E 004°47'0 0.0
2018-Sep-11 06:03N 52°58' E 004°47'0 0.0
2018-Sep-11 06:00N 52°58' E 004°47'0 0.0
2018-Sep-11 05:30N 52°58' E 004°47'0 0.0
2018-Sep-11 05:03N 52°58' E 004°47'0 0.0
2018-Sep-11 04:57N 52°58' E 004°47'0 0.0
2018-Sep-11 04:30N 52°58' E 004°47'0 0.0
2018-Sep-11 04:03N 52°58' E 004°47'0 0.0
2018-Sep-11 04:00N 52°58' E 004°47'0 0.0
2018-Sep-11 03:30N 52°58' E 004°47'0 0.0
2018-Sep-11 03:03N 52°58' E 004°47'0 0.0
2018-Sep-11 02:57N 52°58' E 004°47'0 0.0
2018-Sep-11 02:30N 52°58' E 004°47'0 0.0
2018-Sep-11 02:03N 52°58' E 004°47'0 0.0
2018-Sep-11 02:00N 52°58' E 004°47'0 0.0
2018-Sep-11 01:30N 52°58' E 004°47'0 0.0
2018-Sep-11 01:03N 52°58' E 004°47'0 0.0
2018-Sep-11 01:00N 52°58' E 004°47'0 0.0
2018-Sep-11 00:30N 52°58' E 004°47'0 0.0
2018-Sep-11 00:03N 52°58' E 004°47'0 0.0
2018-Sep-11 00:00N 52°58' E 004°47'0 0.0
2018-Sep-10 23:30N 52°58' E 004°47'0 0.0
2018-Sep-10 23:03N 52°58' E 004°47'0 0.0
2018-Sep-10 23:00N 52°58' E 004°47'0 0.0
2018-Sep-10 22:30N 52°58' E 004°47'0 0.0
2018-Sep-10 22:03N 52°58' E 004°47'0 0.0
2018-Sep-10 22:00N 52°58' E 004°47'0 0.0
2018-Sep-10 21:30N 52°58' E 004°47'0 0.0
2018-Sep-10 21:03N 52°58' E 004°47'0 0.0
2018-Sep-10 21:00N 52°58' E 004°47'0 0.0
2018-Sep-10 20:30N 52°58' E 004°47'0 0.0
2018-Sep-10 20:03N 52°58' E 004°47'0 0.0
2018-Sep-10 20:00N 52°58' E 004°47'0 0.0
2018-Sep-10 19:30N 52°58' E 004°47'0 0.0
2018-Sep-10 19:03N 52°58' E 004°47'0 0.0
2018-Sep-10 19:00N 52°58' E 004°47'0 0.0
2018-Sep-10 18:30N 52°58' E 004°47'0 0.0
2018-Sep-10 18:03N 52°58' E 004°47'0 0.1
2018-Sep-10 18:00N 52°58' E 004°47'0 0.0
2018-Sep-10 17:30N 52°58' E 004°47'0 0.0
2018-Sep-10 17:03N 52°58' E 004°47'0 0.0
2018-Sep-10 17:00N 52°58' E 004°47'0 0.0
2018-Sep-10 16:30N 52°58' E 004°47'0 0.0
2018-Sep-10 16:03N 52°58' E 004°47'0 0.0
2018-Sep-10 16:00N 52°58' E 004°47'0 0.0
2018-Sep-10 15:30N 52°58' E 004°47'0 0.0
2018-Sep-10 15:03N 52°58' E 004°47'0 0.0
2018-Sep-10 15:00N 52°58' E 004°47'0 0.0
2018-Sep-10 14:03N 52°58' E 004°47'0 0.0
2018-Sep-10 14:00N 52°58' E 004°47'0 0.0
2018-Sep-10 13:30N 52°58' E 004°47'2 4.9
2018-Sep-10 13:03N 52°60' E 004°48'0 3.2
2018-Sep-10 13:00N 52°60' E 004°48'3 5.3
2018-Sep-10 12:30N 52°58' E 004°44'2 4.6
2018-Sep-10 12:04N 52°58' E 004°47'0 5.1
2018-Sep-10 12:01N 52°58' E 004°47'1 2.7
2018-Sep-10 11:30N 52°58' E 004°45'2 4.0
2018-Sep-10 11:03N 52°59' E 004°48'0 7.4
2018-Sep-10 11:01N 52°59' E 004°47'1 2.3
2018-Sep-10 10:29N 52°58' E 004°47'0 0.0
2018-Sep-10 10:02N 52°58' E 004°47'0 0.0
2018-Sep-10 09:59N 52°58' E 004°47'0 0.0
2018-Sep-10 09:29N 52°58' E 004°47'0 0.8
2018-Sep-10 09:03N 52°58' E 004°47'110.5
2018-Sep-10 09:00N 52°58' E 004°47'3 5.4
2018-Sep-10 08:30N 52°58' E 004°43'3 6.9
2018-Sep-10 08:03N 52°59' E 004°47'110.6
2018-Sep-10 08:01N 52°59' E 004°48'1 2.7
2018-Sep-10 07:29N 52°58' E 004°47'0 0.0
2018-Sep-10 06:59N 52°58' E 004°47'0 0.0
2018-Sep-10 06:26N 52°58' E 004°47'0 0.0
2018-Sep-10 06:02N 52°58' E 004°47'0 0.0
2018-Sep-10 05:59N 52°58' E 004°47'0 0.0
2018-Sep-10 05:29N 52°58' E 004°47'0 0.0
2018-Sep-10 05:02N 52°58' E 004°47'0 0.0
2018-Sep-10 04:59N 52°58' E 004°47'0 0.0
2018-Sep-10 04:29N 52°58' E 004°47'0 0.0
2018-Sep-10 04:02N 52°58' E 004°47'0 0.0
2018-Sep-10 03:59N 52°58' E 004°47'0 0.0
2018-Sep-10 03:29N 52°58' E 004°47'0 0.0
2018-Sep-10 03:02N 52°58' E 004°47'0 0.0
2018-Sep-10 02:59N 52°58' E 004°47'0 0.0
2018-Sep-10 02:26N 52°58' E 004°47'0 0.0
2018-Sep-10 01:59N 52°58' E 004°47'0 0.0
2018-Sep-10 01:29N 52°58' E 004°47'0 0.0
2018-Sep-10 01:02N 52°58' E 004°47'0 0.0
2018-Sep-10 00:56N 52°58' E 004°47'0 0.0
2018-Sep-10 00:29N 52°58' E 004°47'0 0.0
2018-Sep-10 00:02N 52°58' E 004°47'0 0.0
2018-Sep-09 23:59N 52°58' E 004°47'0 0.0
2018-Sep-09 23:29N 52°58' E 004°47'0 0.0
2018-Sep-09 23:02N 52°58' E 004°47'0 0.0
2018-Sep-09 22:59N 52°58' E 004°47'0 0.0
2018-Sep-09 22:26N 52°58' E 004°47'0 0.0
2018-Sep-09 22:02N 52°58' E 004°47'0 0.0
2018-Sep-09 21:59N 52°58' E 004°47'0 0.0
2018-Sep-09 21:29N 52°58' E 004°47'0 0.0
2018-Sep-09 21:02N 52°58' E 004°47'0 0.0
2018-Sep-09 20:59N 52°58' E 004°47'0 0.0
2018-Sep-09 20:29N 52°58' E 004°47'0 0.0
2018-Sep-09 20:02N 52°58' E 004°47'0 0.1
2018-Sep-09 19:59N 52°58' E 004°47'0 0.0
2018-Sep-09 19:29N 52°58' E 004°47'0 0.0
2018-Sep-09 19:02N 52°58' E 004°47'0 0.1
2018-Sep-09 18:59N 52°58' E 004°47'0 0.0
2018-Sep-09 18:29N 52°58' E 004°47'0 0.0
2018-Sep-09 18:02N 52°58' E 004°47'0 0.0
2018-Sep-09 17:59N 52°58' E 004°47'0 0.0
2018-Sep-09 17:29N 52°58' E 004°47'0 0.0
2018-Sep-09 16:56N 52°58' E 004°47'0 0.0
2018-Sep-09 16:29N 52°58' E 004°47'0 0.0
2018-Sep-09 16:02N 52°58' E 004°47'0 0.0
2018-Sep-09 15:59N 52°58' E 004°47'0 0.0
2018-Sep-09 15:26N 52°58' E 004°47'0 0.0
2018-Sep-09 15:02N 52°58' E 004°47'0 0.0
2018-Sep-09 14:59N 52°58' E 004°47'0 0.0
2018-Sep-09 14:29N 52°58' E 004°47'0 0.0
2018-Sep-09 13:59N 52°58' E 004°47'0 0.0
2018-Sep-09 13:26N 52°58' E 004°47'0 0.0
2018-Sep-09 13:02N 52°58' E 004°47'0 0.0
2018-Sep-09 12:59N 52°58' E 004°47'0 0.0
2018-Sep-09 12:26N 52°58' E 004°47'0 0.0
2018-Sep-09 12:02N 52°58' E 004°47'0 0.0
2018-Sep-09 11:59N 52°58' E 004°47'0 0.0
2018-Sep-09 11:26N 52°58' E 004°47'0 0.0
2018-Sep-09 11:02N 52°58' E 004°47'0 0.0
2018-Sep-09 10:59N 52°58' E 004°47'0 0.0
2018-Sep-09 10:29N 52°58' E 004°47'0 0.0
2018-Sep-09 10:02N 52°58' E 004°47'0 0.0
2018-Sep-09 09:59N 52°58' E 004°47'0 0.0
2018-Sep-09 09:29N 52°58' E 004°47'0 0.0
2018-Sep-09 09:02N 52°58' E 004°47'0 0.0
2018-Sep-09 08:59N 52°58' E 004°47'0 0.0
2018-Sep-09 08:29N 52°58' E 004°47'0 0.0
2018-Sep-09 08:02N 52°58' E 004°47'0 0.0
2018-Sep-09 07:59N 52°58' E 004°47'0 0.0
2018-Sep-09 07:26N 52°58' E 004°47'0 0.0
2018-Sep-09 07:02N 52°58' E 004°47'0 0.0
2018-Sep-09 06:59N 52°58' E 004°47'0 0.0
2018-Sep-09 06:29N 52°58' E 004°47'0 0.0
2018-Sep-09 06:02N 52°58' E 004°47'0 0.1
2018-Sep-09 05:59N 52°58' E 004°47'0 0.0
2018-Sep-09 05:29N 52°58' E 004°47'0 0.0
2018-Sep-09 05:02N 52°58' E 004°47'0 0.0
2018-Sep-09 04:59N 52°58' E 004°47'0 0.0
2018-Sep-09 04:29N 52°58' E 004°47'0 0.0
2018-Sep-09 04:02N 52°58' E 004°47'0 0.0
2018-Sep-09 03:59N 52°58' E 004°47'0 0.0
2018-Sep-09 03:29N 52°58' E 004°47'0 0.0
2018-Sep-09 03:02N 52°58' E 004°47'0 0.1
2018-Sep-09 02:59N 52°58' E 004°47'0 0.0
2018-Sep-09 02:29N 52°58' E 004°47'0 0.0
2018-Sep-09 02:02N 52°58' E 004°47'0 0.0
2018-Sep-09 01:59N 52°58' E 004°47'0 0.0
2018-Sep-09 01:29N 52°58' E 004°47'0 0.0
2018-Sep-09 01:02N 52°58' E 004°47'0 0.0
2018-Sep-09 00:59N 52°58' E 004°47'  

Dump ship's entire track history